Time;durP1;ratioP1;P1;durP2;ratioP2;P2;SDS_P1;SDS_P2;PMS_P1;PMS_P2;Temp;Humidity;BMP_temperature;BMP_pressure;BME280_temperature;BME280_humidity;BME280_pressure;Samples;Min_cycle;Max_cycle;Signal;HPM_P1;HPM_P2
2021/12/09 00:01:21;;;;;;;10.85;3.60;;;;;;;0.41;98.10;98040.88;5002281;28;20038;-64
2021/12/09 00:03:47;;;;;;;9.35;3.25;;;;;;;0.28;98.71;98040.09;5008268;28;20041;-64
2021/12/09 00:06:15;;;;;;;8.20;3.40;;;;;;;0.29;98.79;98042.53;5001908;28;20038;-64
2021/12/09 00:08:41;;;;;;;12.70;3.47;;;;;;;0.40;98.43;98043.72;5006709;28;20030;-64
2021/12/09 00:11:07;;;;;;;8.55;3.88;;;;;;;0.34;99.26;98044.53;5000782;28;20069;-64
2021/12/09 00:13:33;;;;;;;8.80;4.45;;;;;;;0.30;99.38;98045.97;5001877;28;20034;-64
2021/12/09 00:15:58;;;;;;;20.60;4.22;;;;;;;0.26;99.57;98047.41;5010201;28;20046;-64
2021/12/09 00:18:24;;;;;;;17.52;3.75;;;;;;;0.19;99.95;98039.50;5013396;28;20314;-64
2021/12/09 00:20:51;;;;;;;10.07;4.13;;;;;;;0.29;99.92;98047.78;5016669;28;20041;-64
2021/12/09 00:23:17;;;;;;;18.42;4.70;;;;;;;0.32;100.00;98044.75;5008954;28;20780;-64
2021/12/09 00:25:42;;;;;;;10.65;4.72;;;;;;;0.29;99.62;98047.00;5027930;28;20136;-65
2021/12/09 00:28:08;;;;;;;13.45;4.97;;;;;;;0.34;100.00;98044.53;5006358;28;20040;-64
2021/12/09 00:30:33;;;;;;;15.52;4.75;;;;;;;0.26;100.00;98036.84;5010652;28;20133;-64
2021/12/09 00:33:00;;;;;;;13.95;5.32;;;;;;;-0.09;99.55;98042.34;5016341;28;20100;-64
2021/12/09 00:35:31;;;;;;;13.20;5.47;;;;;;;-0.28;99.75;98036.88;5008313;28;20046;-64
2021/12/09 00:38:05;;;;;;;19.08;4.93;;;;;;;-0.28;100.00;98036.06;5005762;28;20116;-64
2021/12/09 00:40:30;;;;;;;19.45;4.82;;;;;;;-0.03;100.00;98031.00;5005427;28;20109;-64
2021/12/09 00:42:56;;;;;;;9.35;3.92;;;;;;;0.05;100.00;98038.72;5004439;28;20030;-64
2021/12/09 00:45:22;;;;;;;15.00;4.38;;;;;;;0.15;100.00;98038.28;5005259;28;20488;-64
2021/12/09 00:47:48;;;;;;;5.53;2.90;;;;;;;0.26;100.00;98042.13;5005288;28;20030;-64
2021/12/09 00:50:13;;;;;;;13.20;4.65;;;;;;;0.25;100.00;98048.41;5004348;28;20116;-64
2021/12/09 00:52:39;;;;;;;16.77;5.93;;;;;;;0.32;100.00;98054.47;5011341;28;20438;-64
2021/12/09 00:55:05;;;;;;;9.15;3.58;;;;;;;0.34;100.00;98053.25;5011774;28;20133;-64
2021/12/09 00:57:31;;;;;;;18.02;4.85;;;;;;;0.38;99.51;98051.84;5004480;28;20038;-64
2021/12/09 00:59:58;;;;;;;14.93;5.18;;;;;;;0.40;99.90;98055.09;5008732;28;20064;-64
2021/12/09 01:02:24;;;;;;;15.82;4.22;;;;;;;0.36;99.45;98059.13;5004635;28;20610;-64
2021/12/09 01:04:50;;;;;;;10.52;3.67;;;;;;;0.45;99.60;98064.19;5005750;28;20113;-64
2021/12/09 01:07:16;;;;;;;10.50;4.25;;;;;;;0.41;99.55;98058.53;5016606;28;20041;-64
2021/12/09 01:09:41;;;;;;;16.33;3.92;;;;;;;0.44;100.00;98055.47;5014067;28;20611;-64
2021/12/09 01:12:07;;;;;;;7.03;2.92;;;;;;;0.47;99.65;98060.31;5005743;28;20033;-64
2021/12/09 01:14:34;;;;;;;11.52;4.25;;;;;;;0.44;99.77;98055.47;5005182;28;20053;-64
2021/12/09 01:17:00;;;;;;;10.00;3.38;;;;;;;0.47;99.89;98048.97;5004305;28;20042;-64
2021/12/09 01:19:26;;;;;;;17.63;4.38;;;;;;;0.52;100.00;98057.88;5010190;28;20522;-64
2021/12/09 01:21:51;;;;;;;14.38;3.85;;;;;;;0.46;100.00;98061.34;5012470;28;20065;-64
2021/12/09 01:24:17;;;;;;;11.05;4.07;;;;;;;0.44;99.89;98071.28;5004584;28;20034;-64
2021/12/09 01:26:44;;;;;;;15.35;3.60;;;;;;;0.46;100.00;98065.81;5010581;28;20479;-64
2021/12/09 01:29:16;;;;;;;12.30;3.55;;;;;;;0.49;99.79;98068.03;5004447;28;20048;-64
2021/12/09 01:31:51;;;;;;;13.57;4.22;;;;;;;0.46;100.00;98079.00;5002425;28;20034;-64
2021/12/09 01:34:19;;;;;;;11.85;3.22;;;;;;;0.49;100.00;98089.13;5004057;28;20030;-64
2021/12/09 01:36:45;;;;;;;5.05;2.80;;;;;;;0.48;99.70;98088.31;5012758;28;20153;-64
2021/12/09 01:39:11;;;;;;;16.67;3.70;;;;;;;0.46;99.67;98077.16;4998965;28;20025;-64
2021/12/09 01:41:37;;;;;;;10.65;4.53;;;;;;;0.49;99.85;98089.94;5009733;28;20038;-64
2021/12/09 01:44:03;;;;;;;6.90;3.08;;;;;;;0.50;99.81;98088.94;5006220;28;20054;-63
2021/12/09 01:46:28;;;;;;;9.77;3.58;;;;;;;0.49;100.00;98092.56;5005685;28;20143;-65
2021/12/09 01:48:54;;;;;;;10.40;3.95;;;;;;;0.51;99.80;98087.91;5004093;28;20488;-63
2021/12/09 01:51:20;;;;;;;13.60;4.60;;;;;;;0.53;99.67;98090.34;5003685;28;20125;-64
2021/12/09 01:53:45;;;;;;;18.98;5.50;;;;;;;0.51;99.52;98087.91;5003908;28;20118;-64
2021/12/09 01:56:21;;;;;;;5.05;2.83;;;;;;;0.53;99.68;98091.16;5009521;28;20053;-63
2021/12/09 01:58:52;;;;;;;13.20;3.47;;;;;;;0.50;99.73;98096.00;5010920;28;20047;-64
2021/12/09 02:01:18;;;;;;;14.45;5.25;;;;;;;0.48;99.50;98093.59;5005222;28;20133;-63
2021/12/09 02:03:43;;;;;;;7.35;3.45;;;;;;;0.51;99.67;98098.47;5014463;28;20400;-63
2021/12/09 02:06:09;;;;;;;16.35;5.60;;;;;;;0.47;99.75;98105.16;5010843;28;20049;-63
2021/12/09 02:08:34;;;;;;;15.73;4.88;;;;;;;0.48;99.54;98098.88;5002419;28;20133;-63
2021/12/09 02:11:00;;;;;;;14.18;4.90;;;;;;;0.49;99.62;98099.69;5006845;28;20384;-63
2021/12/09 02:13:26;;;;;;;11.00;4.50;;;;;;;0.47;99.94;98097.25;5005203;28;20057;-64
2021/12/09 02:15:54;;;;;;;16.33;5.13;;;;;;;0.49;99.95;98097.84;5014477;28;20442;-63
2021/12/09 02:18:21;;;;;;;10.52;4.55;;;;;;;0.50;99.85;98106.56;5002757;28;20812;-63
2021/12/09 02:20:47;;;;;;;14.55;4.95;;;;;;;0.45;99.67;98098.44;5008481;28;20849;-63
2021/12/09 02:23:16;;;;;;;15.70;5.45;;;;;;;0.45;99.87;98098.44;4999193;28;20041;-64
2021/12/09 02:25:44;;;;;;;12.30;4.70;;;;;;;0.50;99.62;98096.84;5010332;28;20061;-63
2021/12/09 02:28:14;;;;;;;16.02;4.47;;;;;;;0.54;99.47;98095.41;5013236;28;20025;-64
2021/12/09 02:30:39;;;;;;;12.95;4.78;;;;;;;0.57;99.32;98091.53;5013033;28;20045;-63
2021/12/09 02:33:05;;;;;;;18.17;4.47;;;;;;;0.54;99.28;98082.22;5001723;28;20076;-64
2021/12/09 02:35:31;;;;;;;11.55;4.35;;;;;;;0.54;99.34;98087.50;5009655;28;20041;-64
2021/12/09 02:37:56;;;;;;;14.48;5.65;;;;;;;0.51;99.62;98082.63;5004756;28;20099;-64
2021/12/09 02:40:22;;;;;;;15.60;4.55;;;;;;;0.50;99.65;98075.75;5004781;28;20125;-64
2021/12/09 02:42:48;;;;;;;10.77;3.67;;;;;;;0.47;99.29;98076.16;5003355;28;20053;-63
2021/12/09 02:45:13;;;;;;;14.95;4.90;;;;;;;0.45;99.32;98075.56;5004390;28;20085;-64
2021/12/09 02:47:39;;;;;;;11.82;5.07;;;;;;;0.35;99.95;98075.97;5004196;28;20642;-63
2021/12/09 02:50:05;;;;;;;12.05;4.32;;;;;;;0.38;100.00;98072.13;5007928;28;20555;-64
2021/12/09 02:52:31;;;;;;;9.75;4.05;;;;;;;0.30;100.00;98070.50;5001610;28;20125;-63
2021/12/09 02:54:58;;;;;;;12.40;4.32;;;;;;;0.35;100.00;98077.78;5003415;28;20391;-63
2021/12/09 02:57:23;;;;;;;11.88;4.75;;;;;;;0.34;100.00;98073.53;5009985;28;20447;-64
2021/12/09 02:59:49;;;;;;;12.90;5.13;;;;;;;0.32;100.00;98080.84;5016132;28;20125;-63
2021/12/09 03:02:15;;;;;;;7.10;2.72;;;;;;;0.33;100.00;98079.84;5008442;28;20052;-64
2021/12/09 03:04:46;;;;;;;14.25;5.60;;;;;;;0.24;100.00;98091.59;5003289;28;20030;-64
2021/12/09 03:07:18;;;;;;;19.20;5.80;;;;;;;0.18;100.00;98078.22;5000899;28;20046;-68
2021/12/09 03:09:51;;;;;;;21.13;5.85;;;;;;;0.25;100.00;98078.22;5009171;28;20491;-63
2021/12/09 03:12:22;;;;;;;8.10;4.15;;;;;;;0.27;100.00;98075.38;5012893;28;20069;-63
2021/12/09 03:14:48;;;;;;;9.88;4.80;;;;;;;0.20;100.00;98078.00;5015573;28;20056;-64
2021/12/09 03:17:13;;;;;;;14.57;5.82;;;;;;;0.19;100.00;98084.28;5002674;28;20042;-63
2021/12/09 03:19:39;;;;;;;14.20;5.30;;;;;;;0.20;100.00;98083.28;5007291;28;20105;-63
2021/12/09 03:22:04;;;;;;;13.77;4.95;;;;;;;0.17;100.00;98076.56;5015370;28;20053;-63
2021/12/09 03:24:30;;;;;;;7.82;3.88;;;;;;;0.17;100.00;98083.69;5014175;28;20069;-62
2021/12/09 03:26:56;;;;;;;13.10;4.80;;;;;;;0.15;100.00;98077.78;5002389;28;20042;-63
2021/12/09 03:29:23;;;;;;;10.93;4.70;;;;;;;0.10;100.00;98081.06;5008107;28;20103;-63
2021/12/09 03:31:50;;;;;;;21.60;5.93;;;;;;;0.04;100.00;98081.06;5002536;28;20041;-63
2021/12/09 03:34:16;;;;;;;17.27;7.53;;;;;;;0.10;100.00;98080.22;5002997;28;20117;-63
2021/12/09 03:36:42;;;;;;;12.23;5.00;;;;;;;0.06;100.00;98074.56;5016850;28;20045;-63
2021/12/09 03:39:15;;;;;;;14.18;5.65;;;;;;;0.05;100.00;98083.50;5002377;28;20790;-63
2021/12/09 03:41:41;;;;;;;16.15;5.47;;;;;;;0.04;100.00;98081.06;5003008;28;20050;-63
2021/12/09 03:44:07;;;;;;;14.07;5.97;;;;;;;0.04;100.00;98091.59;5003136;28;20128;-63
2021/12/09 03:46:33;;;;;;;10.40;6.13;;;;;;;-0.03;100.00;98102.13;5001855;28;20452;-63
2021/12/09 03:48:58;;;;;;;21.02;6.55;;;;;;;-0.10;100.00;98107.41;5008331;28;20473;-63
2021/12/09 03:51:24;;;;;;;9.10;5.13;;;;;;;-0.15;100.00;98107.19;5007878;28;20292;-63
2021/12/09 03:53:51;;;;;;;14.10;6.25;;;;;;;-0.16;100.00;98107.38;5018457;28;20718;-63
2021/12/09 03:56:17;;;;;;;18.67;6.82;;;;;;;-0.23;100.00;98102.09;5018968;28;20532;-63
2021/12/09 03:58:42;;;;;;;6.90;4.03;;;;;;;-0.29;100.00;98093.19;5012197;28;20059;-63
2021/12/09 04:01:08;;;;;;;20.75;7.30;;;;;;;-0.30;100.00;98104.75;5007168;28;20069;-63
2021/12/09 04:03:33;;;;;;;21.02;9.98;;;;;;;-0.33;100.00;98102.50;5006135;28;20085;-63
2021/12/09 04:05:59;;;;;;;20.25;8.80;;;;;;;-0.43;100.00;98096.78;5017696;28;20128;-63
2021/12/09 04:08:25;;;;;;;12.90;7.75;;;;;;;-0.46;100.00;98097.19;5005679;28;20060;-63
2021/12/09 04:10:50;;;;;;;19.77;9.95;;;;;;;-0.45;100.00;98093.53;5011170;28;20049;-63
2021/12/09 04:13:17;;;;;;;22.30;10.18;;;;;;;-0.46;100.00;98105.09;5007095;28;20029;-63
2021/12/09 04:15:43;;;;;;;13.75;7.47;;;;;;;-0.46;100.00;98105.09;5012407;28;20136;-63
2021/12/09 04:18:09;;;;;;;20.67;9.77;;;;;;;-0.51;100.00;98099.63;5006077;28;20116;-63
2021/12/09 04:20:35;;;;;;;14.00;6.90;;;;;;;-0.56;100.00;98110.75;5009326;28;20084;-63
2021/12/09 04:23:00;;;;;;;17.63;8.27;;;;;;;-0.56;100.00;98123.91;5020232;28;20033;-63
2021/12/09 04:25:26;;;;;;;19.98;10.50;;;;;;;-0.57;100.00;98122.28;5023698;28;20056;-64
2021/12/09 04:27:53;;;;;;;24.00;11.73;;;;;;;-0.61;100.00;98121.06;5012166;28;20144;-63
2021/12/09 04:30:19;;;;;;;17.08;6.97;;;;;;;-0.63;100.00;98125.69;5005388;28;20099;-63
2021/12/09 04:32:45;;;;;;;18.05;8.95;;;;;;;-0.71;100.00;98137.22;5006155;28;20042;-65
2021/12/09 04:35:11;;;;;;;28.67;12.80;;;;;;;-0.75;100.00;98143.88;5010080;28;20133;-63
2021/12/09 04:37:37;;;;;;;24.05;11.80;;;;;;;-0.75;100.00;98145.69;5006803;28;20516;-63
2021/12/09 04:40:06;;;;;;;18.25;9.07;;;;;;;-0.74;100.00;98158.66;5007656;28;20037;-63
2021/12/09 04:42:32;;;;;;;17.80;9.48;;;;;;;-0.70;100.00;98149.38;5015466;28;20116;-63
2021/12/09 04:44:58;;;;;;;22.95;9.75;;;;;;;-0.70;100.00;98169.59;5005641;28;20079;-63
2021/12/09 04:47:23;;;;;;;21.90;9.80;;;;;;;-0.74;100.00;98153.41;5005494;28;20077;-63
2021/12/09 04:49:49;;;;;;;33.55;12.93;;;;;;;-0.76;100.00;98152.78;5005863;28;20061;-64
2021/12/09 04:52:15;;;;;;;17.23;9.15;;;;;;;-0.76;100.00;98150.16;5009325;28;20455;-63
2021/12/09 04:54:41;;;;;;;24.17;9.98;;;;;;;-0.78;100.00;98154.78;5003822;28;20042;-63
2021/12/09 04:57:10;;;;;;;31.13;13.23;;;;;;;-0.81;100.00;98149.91;5009758;28;20049;-64
2021/12/09 04:59:36;;;;;;;22.50;8.43;;;;;;;-0.84;100.00;98149.50;5011309;28;20034;-64
2021/12/09 05:02:02;;;;;;;12.60;7.07;;;;;;;-0.85;100.00;98158.41;5005965;28;20070;-64
2021/12/09 05:04:28;;;;;;;25.60;11.85;;;;;;;-0.85;100.00;98155.75;5005570;28;20080;-63
2021/12/09 05:06:54;;;;;;;29.65;12.75;;;;;;;-0.86;100.00;98170.75;5013572;28;20037;-63
2021/12/09 05:09:20;;;;;;;16.80;8.82;;;;;;;-0.76;100.00;98173.81;5018547;28;20038;-64
2021/12/09 05:14:11;;;;;;;29.88;12.32;;;;;;;-0.77;100.00;98180.09;5014242;28;20029;-64
2021/12/09 05:16:37;;;;;;;24.13;11.10;;;;;;;-0.72;100.00;98177.69;5024456;28;20045;-64
2021/12/09 05:19:03;;;;;;;31.75;11.48;;;;;;;-0.75;100.00;98187.78;5005190;28;20173;-64
2021/12/09 05:21:36;;;;;;;27.58;12.25;;;;;;;-0.76;100.00;98186.97;5004724;28;20041;-64
2021/12/09 05:24:06;;;;;;;16.50;7.32;;;;;;;-0.79;100.00;98192.63;5005128;28;20034;-64
2021/12/09 05:26:38;;;;;;;24.83;11.23;;;;;;;-0.81;100.00;98186.75;5006123;28;20137;-64
2021/12/09 05:29:04;;;;;;;25.05;10.75;;;;;;;-0.78;100.00;98178.47;5004890;28;20044;-63
2021/12/09 05:34:14;;;;;;;25.45;11.20;;;;;;;-0.62;100.00;98171.25;5005502;28;20225;-64
2021/12/09 05:36:39;;;;;;;28.52;12.10;;;;;;;-0.73;100.00;98170.78;5013862;28;21020;-63
2021/12/09 05:39:07;;;;;;;31.15;11.52;;;;;;;-0.85;100.00;98175.00;5008452;28;20025;-63
2021/12/09 05:41:33;;;;;;;20.25;10.88;;;;;;;-0.82;100.00;98187.78;5001104;28;20046;-64
2021/12/09 05:44:00;;;;;;;20.30;9.10;;;;;;;-0.82;100.00;98193.03;5005142;28;20422;-63
2021/12/09 05:46:26;;;;;;;21.73;10.68;;;;;;;-0.83;100.00;98180.88;5012346;28;20044;-64
2021/12/09 05:48:52;;;;;;;24.50;9.52;;;;;;;-0.80;100.00;98179.66;5006395;28;20045;-64
2021/12/09 05:51:17;;;;;;;27.73;9.60;;;;;;;-0.81;100.00;98193.84;5002389;28;20125;-64
2021/12/09 05:53:43;;;;;;;24.70;10.02;;;;;;;-0.86;100.00;98197.06;5009028;28;20506;-64
2021/12/09 05:56:09;;;;;;;23.95;8.70;;;;;;;-0.72;100.00;98197.94;5009399;28;20041;-64
2021/12/09 05:58:34;;;;;;;21.02;9.27;;;;;;;-0.76;100.00;98201.97;5018872;28;20483;-64
2021/12/09 06:01:00;;;;;;;20.90;9.05;;;;;;;-0.79;100.00;98203.16;5005019;28;20140;-64
2021/12/09 06:03:25;;;;;;;22.95;9.05;;;;;;;-0.80;100.00;98203.34;5008200;28;20034;-64
2021/12/09 06:05:51;;;;;;;23.80;9.90;;;;;;;-0.75;100.00;98199.16;5013136;28;20049;-63
2021/12/09 06:08:17;;;;;;;22.00;8.95;;;;;;;-0.68;100.00;98197.34;5004020;28;20045;-63
2021/12/09 06:10:43;;;;;;;23.02;8.80;;;;;;;-0.58;100.00;98202.25;5011317;28;20060;-64
2021/12/09 06:13:09;;;;;;;28.30;9.45;;;;;;;-0.56;100.00;98202.06;5009861;28;20029;-64
2021/12/09 06:15:34;;;;;;;25.75;11.10;;;;;;;-0.53;100.00;98196.41;5009954;28;20464;-63
2021/12/09 06:18:00;;;;;;;31.05;10.27;;;;;;;-0.50;100.00;98191.56;5002190;28;20061;-63
2021/12/09 06:20:26;;;;;;;25.98;9.93;;;;;;;-0.47;100.00;98185.91;5016155;28;20050;-64
2021/12/09 06:22:51;;;;;;;16.30;9.13;;;;;;;-0.45;100.00;98202.31;5004736;28;20037;-64
2021/12/09 06:25:19;;;;;;;19.88;9.02;;;;;;;-0.38;100.00;98204.16;5010068;28;20714;-64
2021/12/09 06:27:45;;;;;;;24.05;9.38;;;;;;;-0.36;100.00;98202.94;5014508;28;20087;-64
2021/12/09 06:30:11;;;;;;;25.17;8.38;;;;;;;-0.26;100.00;98213.91;5004724;28;20067;-64
2021/12/09 06:32:37;;;;;;;19.60;8.18;;;;;;;0.01;100.00;98213.19;5020732;28;20538;-64
2021/12/09 06:35:04;;;;;;;17.35;8.13;;;;;;;-0.10;100.00;98219.84;5011802;28;20742;-64
2021/12/09 06:37:30;;;;;;;28.25;8.80;;;;;;;-0.12;100.00;98224.50;5004101;28;20722;-64
2021/12/09 06:39:55;;;;;;;25.05;8.57;;;;;;;0.05;100.00;98219.66;4987128;28;20041;-64
2021/12/09 06:42:21;;;;;;;17.83;7.95;;;;;;;0.13;100.00;98220.31;5017001;28;20474;-64
2021/12/09 06:44:47;;;;;;;17.15;7.70;;;;;;;0.00;100.00;98220.28;5003145;28;20092;-65
2021/12/09 06:47:12;;;;;;;17.55;7.57;;;;;;;0.05;100.00;98225.78;5002135;28;20136;-64
2021/12/09 06:49:38;;;;;;;17.17;8.23;;;;;;;0.01;100.00;98224.53;5002642;28;20479;-64
2021/12/09 06:52:04;;;;;;;20.55;7.00;;;;;;;0.08;100.00;98229.84;5004217;28;20681;-64
2021/12/09 06:54:29;;;;;;;15.75;6.72;;;;;;;0.08;100.00;98224.56;5003838;28;20623;-64
2021/12/09 06:56:55;;;;;;;17.58;7.25;;;;;;;0.04;100.00;98233.88;5003242;28;20048;-64
2021/12/09 06:59:21;;;;;;;13.40;6.60;;;;;;;0.06;100.00;98232.66;5008595;28;20942;-64
2021/12/09 07:01:46;;;;;;;15.38;7.15;;;;;;;0.13;100.00;98233.47;5005178;28;20069;-64
2021/12/09 07:04:12;;;;;;;16.17;7.07;;;;;;;0.16;100.00;98243.63;5016354;28;20117;-64
2021/12/09 07:06:37;;;;;;;15.70;7.40;;;;;;;0.13;100.00;98230.03;5002921;28;20160;-63
2021/12/09 07:09:04;;;;;;;17.83;7.60;;;;;;;0.15;100.00;98239.38;5005790;28;20412;-63
2021/12/09 07:11:31;;;;;;;17.67;7.72;;;;;;;0.18;100.00;98236.34;5014347;28;20054;-63
2021/12/09 07:13:56;;;;;;;17.90;7.78;;;;;;;0.20;100.00;98239.59;4993257;28;20053;-63
2021/12/09 07:16:22;;;;;;;15.77;7.57;;;;;;;0.30;100.00;98248.91;5013087;28;20189;-65
2021/12/09 07:18:48;;;;;;;21.40;8.57;;;;;;;0.25;100.00;98246.06;5008447;28;20034;-63
2021/12/09 07:21:14;;;;;;;14.13;7.50;;;;;;;0.31;100.00;98251.34;5001504;28;20038;-63
2021/12/09 07:23:39;;;;;;;12.50;6.82;;;;;;;0.32;100.00;98254.78;5007116;28;20048;-63
2021/12/09 07:26:05;;;;;;;20.58;7.72;;;;;;;0.29;100.00;98261.28;5006608;28;20038;-65
2021/12/09 07:28:30;;;;;;;18.17;7.93;;;;;;;0.31;100.00;98263.72;5003144;28;20559;-63
2021/12/09 07:30:56;;;;;;;18.10;8.52;;;;;;;0.25;100.00;98267.16;5008851;28;20441;-64
2021/12/09 07:33:22;;;;;;;17.95;7.82;;;;;;;0.23;100.00;98264.72;5008698;28;20491;-64
2021/12/09 07:35:47;;;;;;;18.50;8.60;;;;;;;0.23;100.00;98269.19;4988920;28;20785;-65
2021/12/09 07:38:14;;;;;;;18.92;9.07;;;;;;;0.19;100.00;98271.41;5017454;28;20034;-64
2021/12/09 07:40:40;;;;;;;20.95;9.38;;;;;;;0.24;100.00;98281.34;5004135;28;20077;-64
2021/12/09 07:43:05;;;;;;;25.25;10.07;;;;;;;0.24;100.00;98279.53;5013341;28;20220;-64
2021/12/09 07:45:31;;;;;;;23.95;8.88;;;;;;;0.32;100.00;98278.53;5012607;28;20103;-65
2021/12/09 07:47:57;;;;;;;25.60;10.10;;;;;;;0.33;100.00;98280.16;5010953;28;20026;-64
2021/12/09 07:50:24;;;;;;;20.02;8.35;;;;;;;0.38;100.00;98278.53;5007454;28;20148;-64
2021/12/09 07:52:51;;;;;;;19.17;9.13;;;;;;;0.31;100.00;98269.81;5007079;28;20109;-65
2021/12/09 07:55:17;;;;;;;18.85;8.82;;;;;;;0.36;100.00;98277.13;4994769;28;20036;-64
2021/12/09 07:57:43;;;;;;;20.33;8.40;;;;;;;0.34;100.00;98272.03;5011922;28;20026;-65
2021/12/09 08:00:29;;;;;;;17.55;8.02;;;;;;;0.34;99.74;98277.31;5005867;28;20615;-66
2021/12/09 08:02:55;;;;;;;14.07;7.22;;;;;;;0.39;99.77;98276.72;5026925;28;20112;-63
2021/12/09 08:05:21;;;;;;;21.02;8.38;;;;;;;0.37;99.80;98287.44;5011787;28;20041;-63
2021/12/09 08:07:46;;;;;;;16.85;8.13;;;;;;;0.39;99.93;98295.16;5010241;28;20036;-64
2021/12/09 08:10:15;;;;;;;17.65;7.95;;;;;;;0.42;99.39;98292.13;5005517;28;20029;-66
2021/12/09 08:12:41;;;;;;;16.77;6.53;;;;;;;0.55;98.91;98305.34;5011768;28;20022;-63
2021/12/09 08:15:07;;;;;;;18.15;7.32;;;;;;;0.65;97.90;98320.78;5013281;28;20026;-63
2021/12/09 08:20:05;;;;;;;18.45;7.60;;;;;;;0.74;97.61;98326.66;5013082;28;20038;-64
2021/12/09 08:22:32;;;;;;;13.63;7.45;;;;;;;0.77;97.32;98329.69;5006630;28;20105;-64
2021/12/09 08:24:58;;;;;;;16.27;6.93;;;;;;;0.75;97.84;98336.19;5006479;28;20705;-64
2021/12/09 08:27:24;;;;;;;17.45;7.47;;;;;;;0.72;97.56;98339.25;5005565;28;20559;-64
2021/12/09 08:29:49;;;;;;;16.75;7.13;;;;;;;0.67;97.64;98339.03;5014041;28;20033;-64
2021/12/09 08:32:15;;;;;;;14.32;6.80;;;;;;;0.64;98.48;98335.78;5020404;28;20064;-64
2021/12/09 08:34:40;;;;;;;15.00;7.15;;;;;;;0.76;97.84;98333.38;5009986;28;20033;-63
2021/12/09 08:37:06;;;;;;;13.85;6.70;;;;;;;0.74;97.74;98342.50;5014101;28;20033;-63
2021/12/09 08:39:32;;;;;;;17.15;7.57;;;;;;;0.78;97.81;98331.34;5016738;28;20877;-63
2021/12/09 08:41:57;;;;;;;8.18;4.70;;;;;;;0.75;97.69;98331.75;5005313;28;20042;-63
2021/12/09 08:44:23;;;;;;;13.32;7.07;;;;;;;0.80;97.48;98333.75;5005023;28;20089;-63
2021/12/09 08:46:48;;;;;;;14.65;7.32;;;;;;;0.78;97.50;98330.53;5005510;28;20136;-63
2021/12/09 08:49:14;;;;;;;20.67;8.35;;;;;;;0.80;97.84;98339.03;5006706;28;20427;-63
2021/12/09 08:51:40;;;;;;;17.13;8.20;;;;;;;0.84;97.45;98340.28;5023060;28;20050;-63
2021/12/09 08:54:06;;;;;;;17.08;7.68;;;;;;;0.95;97.47;98333.56;5014136;28;20030;-63
2021/12/09 08:56:32;;;;;;;16.17;7.60;;;;;;;1.00;97.08;98339.06;5004482;28;20539;-63
2021/12/09 08:58:57;;;;;;;18.77;7.93;;;;;;;1.07;96.50;98334.59;5010521;28;20068;-63
2021/12/09 09:01:23;;;;;;;16.85;7.55;;;;;;;1.05;95.74;98337.47;5005115;28;20189;-63
2021/12/09 09:03:48;;;;;;;19.30;7.40;;;;;;;1.15;95.57;98330.94;5005385;28;20737;-63
2021/12/09 09:06:14;;;;;;;17.70;8.13;;;;;;;1.26;95.15;98327.69;5006060;28;20038;-63
2021/12/09 09:08:39;;;;;;;19.60;8.13;;;;;;;1.24;94.85;98321.81;5009512;28;20124;-63
2021/12/09 09:11:05;;;;;;;19.50;7.90;;;;;;;1.28;95.66;98330.94;5007190;28;20042;-63
2021/12/09 09:13:30;;;;;;;20.17;8.32;;;;;;;1.16;96.53;98322.81;5018646;28;20065;-63
2021/12/09 09:15:56;;;;;;;24.55;10.35;;;;;;;1.19;95.95;98322.41;5009620;28;20073;-63
2021/12/09 09:18:22;;;;;;;26.42;10.10;;;;;;;1.41;95.60;98330.94;5016738;28;20025;-63
2021/12/09 09:20:47;;;;;;;21.30;9.57;;;;;;;1.51;95.01;98330.50;5009728;28;20053;-63
2021/12/09 09:23:16;;;;;;;15.93;7.22;;;;;;;1.26;94.89;98328.50;5002856;28;20037;-63
2021/12/09 09:25:42;;;;;;;19.60;8.25;;;;;;;1.54;94.70;98329.28;5004711;28;20045;-63
2021/12/09 09:28:08;;;;;;;19.13;8.82;;;;;;;1.49;95.16;98333.34;5008223;28;20038;-63
2021/12/09 09:30:37;;;;;;;16.08;7.63;;;;;;;1.61;94.59;98330.91;5004031;28;20073;-63
2021/12/09 09:33:11;;;;;;;17.40;8.80;;;;;;;1.66;93.69;98328.44;5004441;28;20034;-63
2021/12/09 09:35:37;;;;;;;19.27;7.88;;;;;;;1.61;93.66;98327.44;5010144;28;20052;-63
2021/12/09 09:38:03;;;;;;;17.70;7.72;;;;;;;1.68;93.74;98325.59;5010842;28;20108;-63
2021/12/09 09:40:30;;;;;;;14.25;6.70;;;;;;;1.73;93.41;98323.97;5004182;28;20037;-63
2021/12/09 09:43:05;;;;;;;14.10;7.25;;;;;;;1.64;93.72;98329.66;5007260;28;20088;-63
2021/12/09 09:45:31;;;;;;;20.20;8.18;;;;;;;1.73;94.94;98317.88;5006319;28;20861;-63
2021/12/09 09:47:56;;;;;;;18.98;7.97;;;;;;;1.79;94.29;98316.22;5004828;28;20495;-63
2021/12/09 09:50:22;;;;;;;12.38;6.80;;;;;;;1.64;93.61;98314.63;5010540;28;20045;-63
2021/12/09 09:52:49;;;;;;;15.18;7.80;;;;;;;1.63;93.66;98323.59;5003022;28;20044;-63
2021/12/09 09:55:20;;;;;;;19.02;7.90;;;;;;;1.65;94.01;98326.03;5007721;28;20029;-63
2021/12/09 09:57:47;;;;;;;17.55;8.40;;;;;;;1.59;94.04;98326.84;5004087;28;20656;-63
2021/12/09 10:00:13;;;;;;;17.73;7.05;;;;;;;1.56;94.57;98327.25;5009504;28;20413;-63
2021/12/09 10:02:39;;;;;;;17.15;8.18;;;;;;;1.58;94.36;98325.22;5017799;28;20666;-63
2021/12/09 10:05:08;;;;;;;17.05;8.70;;;;;;;1.66;93.87;98325.00;5016066;28;20118;-63
2021/12/09 10:07:34;;;;;;;17.50;8.60;;;;;;;1.57;94.21;98331.50;5018508;28;20077;-63
2021/12/09 10:10:00;;;;;;;18.55;8.00;;;;;;;1.84;94.58;98319.84;5004243;28;20042;-64
2021/12/09 10:12:25;;;;;;;23.05;8.10;;;;;;;1.75;93.64;98307.91;5007878;28;20050;-64
2021/12/09 10:14:52;;;;;;;16.05;7.50;;;;;;;1.68;93.92;98315.84;5003111;28;20029;-64
2021/12/09 10:17:21;;;;;;;23.75;7.78;;;;;;;1.86;93.63;98311.72;5000749;28;20065;-64
2021/12/09 10:19:46;;;;;;;16.58;8.15;;;;;;;1.91;93.38;98317.19;5009911;28;20021;-65
2021/12/09 10:22:12;;;;;;;17.98;8.15;;;;;;;1.82;93.95;98316.63;5006739;28;20045;-64
2021/12/09 10:24:39;;;;;;;17.45;8.27;;;;;;;1.89;93.52;98313.94;5009275;28;20117;-64
2021/12/09 10:27:13;;;;;;;20.02;8.10;;;;;;;1.93;93.64;98312.53;5009697;28;20642;-64
2021/12/09 10:29:43;;;;;;;25.38;8.85;;;;;;;2.00;93.71;98310.66;5008392;28;20038;-63
2021/12/09 10:32:13;;;;;;;25.50;9.40;;;;;;;1.94;93.64;98307.00;5011920;28;20045;-64
2021/12/09 10:34:42;;;;;;;17.80;9.02;;;;;;;1.84;92.51;98306.66;5008568;28;20022;-64
2021/12/09 10:37:10;;;;;;;22.27;8.35;;;;;;;1.81;92.61;98299.13;5005167;28;20074;-64
2021/12/09 10:39:55;;;;;;;21.58;7.70;;;;;;;1.87;92.92;98306.25;5007468;28;20026;-64
2021/12/09 10:42:28;;;;;;;21.23;9.90;;;;;;;1.72;93.90;98303.84;5004176;28;20508;-64
2021/12/09 10:45:02;;;;;;;25.15;9.45;;;;;;;1.59;94.15;98303.06;5010458;28;20118;-61
2021/12/09 10:47:37;;;;;;;20.52;10.32;;;;;;;1.79;94.25;98306.47;5002757;28;20060;-62
2021/12/09 10:50:16;;;;;;;20.02;9.35;;;;;;;1.79;94.29;98300.38;5006164;28;20076;-65
2021/12/09 10:52:48;;;;;;;18.15;8.75;;;;;;;1.72;94.13;98303.03;5010036;28;20359;-64
2021/12/09 10:55:33;;;;;;;18.60;7.60;;;;;;;1.74;94.04;98306.28;4999835;28;20623;-66
2021/12/09 10:58:11;;;;;;;26.27;8.95;;;;;;;1.65;92.98;98307.53;5011388;28;20163;-65
2021/12/09 11:00:52;;;;;;;20.20;8.50;;;;;;;1.77;92.84;98302.41;5016206;28;20691;-65
